createdAt,value
2019-04-25T00:01:11.568Z,1.90
2019-04-25T00:06:06.804Z,1.90
2019-04-25T00:11:01.784Z,1.80
2019-04-25T00:15:55.795Z,1.80
2019-04-25T00:20:52.217Z,1.63
2019-04-25T00:26:05.141Z,1.70
2019-04-25T00:30:59.916Z,1.67
2019-04-25T00:35:53.872Z,1.60
2019-04-25T00:40:48.058Z,1.50
2019-04-25T00:45:43.607Z,1.70
2019-04-25T00:50:38.051Z,1.40
2019-04-25T00:55:32.063Z,1.80
2019-04-25T01:00:37.032Z,1.70
2019-04-25T01:05:31.604Z,1.43
2019-04-25T01:10:25.762Z,1.90
2019-04-25T01:15:21.389Z,1.70
2019-04-25T01:20:15.848Z,1.87
2019-04-25T01:25:10.049Z,1.70
2019-04-25T01:30:06.145Z,2.10
2019-04-25T01:35:17.218Z,1.80
2019-04-25T01:40:18.924Z,1.77
2019-04-25T01:45:14.062Z,1.90
2019-04-25T01:50:08.281Z,2.00
2019-04-25T01:55:05.539Z,1.60
2019-04-25T01:59:59.666Z,1.77
2019-04-25T02:04:56.684Z,1.60
2019-04-25T02:09:50.024Z,1.60
2019-04-25T02:14:44.702Z,1.93
2019-04-25T02:19:38.788Z,1.83
2019-04-25T02:24:33.867Z,1.60
2019-04-25T02:29:28.110Z,1.50
2019-04-25T02:34:22.093Z,1.60
2019-04-25T02:39:17.721Z,1.70
2019-04-25T02:44:14.441Z,1.50
2019-04-25T02:49:35.426Z,1.60
2019-04-25T02:54:24.636Z,1.60
2019-04-25T02:59:18.741Z,1.80
2019-04-25T03:04:14.445Z,1.67
2019-04-25T03:09:10.697Z,1.63
2019-04-25T03:14:06.982Z,1.70
2019-04-25T03:19:04.795Z,1.50
2019-04-25T03:23:59.603Z,1.67
2019-04-25T03:28:54.557Z,1.53
2019-04-25T03:33:48.660Z,1.83
2019-04-25T03:38:44.083Z,1.50
2019-04-25T03:43:38.183Z,1.70
2019-04-25T03:48:35.168Z,1.50
2019-04-25T03:53:28.007Z,1.40
2019-04-25T03:58:21.968Z,1.70
2019-04-25T04:03:15.925Z,1.50
2019-04-25T04:08:09.889Z,1.70
2019-04-25T04:13:05.158Z,1.67
2019-04-25T04:18:01.660Z,1.50
2019-04-25T04:23:07.187Z,1.50
2019-04-25T04:28:01.189Z,1.47
2019-04-25T04:32:55.159Z,1.33
2019-04-25T04:37:49.230Z,1.53
2019-04-25T04:42:43.543Z,1.53
2019-04-25T04:47:37.527Z,1.70
2019-04-25T04:52:31.589Z,1.60
2019-04-25T04:57:31.922Z,1.43
2019-04-25T05:02:35.464Z,1.40
2019-04-25T05:07:46.426Z,1.20
2019-04-25T05:12:40.407Z,1.60
2019-04-25T05:17:34.383Z,1.50
2019-04-25T05:22:28.392Z,1.50
2019-04-25T05:27:37.173Z,1.70
2019-04-25T05:32:19.217Z,1.60
2019-04-25T05:37:14.399Z,1.47
2019-04-25T05:42:29.044Z,1.40
2019-04-25T05:47:25.760Z,1.40
2019-04-25T05:52:19.838Z,1.53
2019-04-25T05:57:13.965Z,1.43
2019-04-25T06:02:07.989Z,1.20
2019-04-25T06:07:02.193Z,1.50
2019-04-25T06:12:14.836Z,1.40
2019-04-25T06:17:10.721Z,1.60
2019-04-25T06:22:06.674Z,1.33
2019-04-25T06:27:14.907Z,1.20
2019-04-25T06:32:09.006Z,1.33
2019-04-25T06:37:04.762Z,1.30
2019-04-25T06:41:59.242Z,1.47
2019-04-25T06:46:58.273Z,2.17
2019-04-25T06:51:54.636Z,1.60
2019-04-25T06:56:48.907Z,1.50
2019-04-25T07:01:44.000Z,1.40
2019-04-25T07:06:38.179Z,1.13
2019-04-25T07:11:32.960Z,1.20
2019-04-25T07:16:28.026Z,1.30
2019-04-25T07:21:24.020Z,1.40
2019-04-25T07:26:20.143Z,1.30
2019-04-25T07:31:31.321Z,1.30
2019-04-25T07:36:25.755Z,1.30
2019-04-25T07:41:20.064Z,1.47
2019-04-25T07:46:13.996Z,1.17
2019-04-25T07:51:08.215Z,1.20
2019-04-25T07:56:04.253Z,1.37
2019-04-25T08:00:58.495Z,1.40
2019-04-25T08:05:53.392Z,1.22
2019-04-25T08:11:00.791Z,1.10
2019-04-25T08:16:03.424Z,1.30
2019-04-25T08:20:57.928Z,1.10
2019-04-25T08:25:51.883Z,1.30
2019-04-25T08:30:45.898Z,1.10
2019-04-25T08:35:39.862Z,1.20
2019-04-25T08:40:35.752Z,1.17
2019-04-25T08:45:30.642Z,1.15
2019-04-25T08:50:32.983Z,0.90
2019-04-25T08:55:45.750Z,1.10
2019-04-25T09:01:01.375Z,1.27
2019-04-25T09:05:54.973Z,1.10
2019-04-25T09:10:49.680Z,1.10
2019-04-25T09:15:45.585Z,1.07
2019-04-25T09:20:42.062Z,1.10
2019-04-25T09:25:36.722Z,1.20
2019-04-25T09:30:31.072Z,1.07
2019-04-25T09:35:25.052Z,0.85
2019-04-25T09:40:19.228Z,1.15
2019-04-25T09:45:30.696Z,1.10
2019-04-25T09:50:35.554Z,1.10
2019-04-25T09:55:49.544Z,1.30
2019-04-25T10:00:46.006Z,1.07
2019-04-25T10:05:40.408Z,1.12
2019-04-25T10:10:34.470Z,1.22
2019-04-25T10:15:47.966Z,1.22
2019-04-25T10:20:43.469Z,1.10
2019-04-25T10:25:38.453Z,1.07
2019-04-25T10:30:34.196Z,0.90
2019-04-25T10:35:28.659Z,0.90
2019-04-25T10:40:25.003Z,0.80
2019-04-25T10:45:23.238Z,0.88
2019-04-25T10:50:15.278Z,0.80
2019-04-25T10:55:09.867Z,0.90
2019-04-25T11:00:20.476Z,0.70
2019-04-25T11:05:16.467Z,0.80
2019-04-25T11:10:10.677Z,0.82
2019-04-25T11:15:05.383Z,0.70
2019-04-25T11:19:59.417Z,0.80
2019-04-25T11:24:53.404Z,0.70
2019-04-25T11:29:47.518Z,0.80
2019-04-25T11:34:43.143Z,0.70
2019-04-25T11:39:44.374Z,0.78
2019-04-25T11:44:38.410Z,0.72
2019-04-25T11:49:34.026Z,0.85
2019-04-25T11:54:28.105Z,0.82
2019-04-25T11:59:23.536Z,0.60
2019-04-25T12:04:17.536Z,0.70
2019-04-25T12:09:11.599Z,0.75
2019-04-25T12:14:05.706Z,0.50
2019-04-25T12:18:59.696Z,0.80
2019-04-25T12:23:53.799Z,0.60
2019-04-25T12:28:47.943Z,0.78
2019-04-25T12:33:43.374Z,0.70
2019-04-25T12:38:38.024Z,0.80
2019-04-25T12:43:33.977Z,0.85
2019-04-25T12:48:28.053Z,0.75
2019-04-25T12:53:23.583Z,0.70
2019-04-25T12:58:17.609Z,0.70
2019-04-25T13:03:11.652Z,0.60
2019-04-25T13:08:05.747Z,0.78
2019-04-25T13:12:59.908Z,0.55
2019-04-25T13:17:54.002Z,0.60
2019-04-25T13:22:48.191Z,0.60
2019-04-25T13:27:53.299Z,0.78
2019-04-25T13:33:06.508Z,0.68
2019-04-25T13:38:01.349Z,0.60
2019-04-25T13:42:56.437Z,0.50
2019-04-25T13:47:50.545Z,0.60
2019-04-25T13:52:44.626Z,0.70
2019-04-25T13:57:38.749Z,0.55
2019-04-25T14:02:32.823Z,0.80
2019-04-25T14:07:27.314Z,0.75
2019-04-25T14:12:21.642Z,0.70
2019-04-25T14:17:26.306Z,0.80
2019-04-25T14:22:21.028Z,0.80
2019-04-25T14:27:15.689Z,0.70
2019-04-25T14:32:11.664Z,0.70
2019-04-25T14:37:05.610Z,0.70
2019-04-25T14:41:59.730Z,0.70
2019-04-25T14:46:53.775Z,0.88
2019-04-25T14:51:47.844Z,0.70
2019-04-25T14:56:43.847Z,1.07
2019-04-25T15:01:45.039Z,0.80
2019-04-25T15:06:33.981Z,0.90
2019-04-25T15:11:29.064Z,0.95
2019-04-25T15:16:23.578Z,1.00
2019-04-25T15:21:18.863Z,1.10
2019-04-25T15:26:13.007Z,0.98
2019-04-25T15:31:07.089Z,1.07
2019-04-25T15:36:03.150Z,0.88
2019-04-25T15:40:59.063Z,1.00
2019-04-25T15:45:55.051Z,1.00
2019-04-25T15:50:50.343Z,0.95
2019-04-25T15:55:45.580Z,1.00
2019-04-25T16:00:40.087Z,1.00
2019-04-25T16:05:35.534Z,1.20
2019-04-25T16:10:29.932Z,1.60
2019-04-25T16:15:24.060Z,1.00
2019-04-25T16:20:18.627Z,1.10
2019-04-25T16:25:12.726Z,1.75
2019-04-25T16:30:07.574Z,1.22
2019-04-25T16:35:02.132Z,1.20
2019-04-25T16:39:56.221Z,0.93
2019-04-25T16:44:50.318Z,0.60
2019-04-25T16:49:44.383Z,0.90
2019-04-25T16:54:38.371Z,0.90
2019-04-25T16:59:33.563Z,0.90
2019-04-25T17:04:29.750Z,0.80
2019-04-25T17:09:23.956Z,0.95
2019-04-25T17:14:19.857Z,0.90
2019-04-25T17:19:15.754Z,0.88
2019-04-25T17:24:09.914Z,0.80
2019-04-25T17:29:06.030Z,0.90
2019-04-25T17:34:08.211Z,0.70
2019-04-25T17:39:18.185Z,0.80
2019-04-25T17:44:12.394Z,0.72
2019-04-25T17:49:06.369Z,0.75
2019-04-25T17:54:00.414Z,0.80
2019-04-25T17:58:54.379Z,0.80
2019-04-25T18:03:48.772Z,0.80
2019-04-25T18:08:42.855Z,0.90
2019-04-25T18:13:38.805Z,0.80
2019-04-25T18:18:35.421Z,0.90
2019-04-25T18:23:48.232Z,0.90
2019-04-25T18:28:47.058Z,0.85
2019-04-25T18:33:41.826Z,1.45
2019-04-25T18:38:47.089Z,1.40
2019-04-25T18:43:52.303Z,0.90
2019-04-25T18:48:46.978Z,1.10
2019-04-25T18:53:45.806Z,0.90
2019-04-25T18:58:41.910Z,0.90
2019-04-25T19:03:41.562Z,1.12
2019-04-25T19:08:35.780Z,1.02
2019-04-25T19:13:29.858Z,0.95
2019-04-25T19:18:24.077Z,1.40
2019-04-25T19:23:18.274Z,1.30
2019-04-25T19:28:12.267Z,1.55
2019-04-25T19:33:07.616Z,2.08
2019-04-25T19:38:02.067Z,2.20
2019-04-25T19:43:00.871Z,2.25
2019-04-25T19:47:54.957Z,1.55
2019-04-25T19:52:49.748Z,1.90
2019-04-25T19:57:44.244Z,2.22
2019-04-25T20:02:40.161Z,2.55
2019-04-25T20:07:46.615Z,2.12
2019-04-25T20:12:44.002Z,2.85
2019-04-25T20:17:38.594Z,2.70
2019-04-25T20:22:32.690Z,1.77
2019-04-25T20:27:26.764Z,1.10
2019-04-25T20:32:20.920Z,1.40
2019-04-25T20:37:15.128Z,1.17
2019-04-25T20:42:09.275Z,1.12
2019-04-25T20:47:03.461Z,1.40
2019-04-25T20:51:57.542Z,1.35
2019-04-25T20:56:51.755Z,1.40
2019-04-25T21:01:45.933Z,1.60
2019-04-25T21:06:40.517Z,1.92
2019-04-25T21:11:34.565Z,1.60
2019-04-25T21:16:46.338Z,1.72
2019-04-25T21:21:40.417Z,1.70
2019-04-25T21:26:34.640Z,1.65
2019-04-25T21:31:28.741Z,1.70
2019-04-25T21:36:22.761Z,1.70
2019-04-25T21:41:21.697Z,1.50
2019-04-25T21:46:16.125Z,1.60
2019-04-25T21:51:28.980Z,2.27
2019-04-25T21:56:23.146Z,2.33
2019-04-25T22:01:19.825Z,4.15
2019-04-25T22:06:13.848Z,3.37
2019-04-25T22:11:08.546Z,4.60
2019-04-25T22:16:04.016Z,2.15
2019-04-25T22:20:58.503Z,1.80
2019-04-25T22:25:52.478Z,2.27
2019-04-25T22:30:48.828Z,2.10
2019-04-25T22:35:47.712Z,2.58
2019-04-25T22:40:42.287Z,2.77
2019-04-25T22:45:36.699Z,2.30
2019-04-25T22:50:30.679Z,1.90
2019-04-25T22:55:24.803Z,1.80
2019-04-25T23:00:29.714Z,2.00
2019-04-25T23:05:28.776Z,1.83
2019-04-25T23:10:23.189Z,2.30
2019-04-25T23:15:17.253Z,2.47
2019-04-25T23:20:11.806Z,2.30
2019-04-25T23:25:08.334Z,2.65
2019-04-25T23:30:05.694Z,2.77
2019-04-25T23:35:00.615Z,2.57
2019-04-25T23:39:54.688Z,2.60
2019-04-25T23:44:48.683Z,2.52
2019-04-25T23:49:42.648Z,2.80
2019-04-25T23:54:37.064Z,2.70
2019-04-25T23:59:31.272Z,2.60
